sensor_id;sensor_type;location;lat;lon;timestamp;P1;durP1;ratioP1;P2;durP2;ratioP2
44276;SDS011;29973;43.742;1.236;2023-06-26T00:01:31;21.90;;;11.02;;
44276;SDS011;29973;43.742;1.236;2023-06-26T00:03:57;17.60;;;10.82;;
44276;SDS011;29973;43.742;1.236;2023-06-26T00:06:27;24.00;;;11.30;;
44276;SDS011;29973;43.742;1.236;2023-06-26T00:08:53;16.08;;;11.05;;
44276;SDS011;29973;43.742;1.236;2023-06-26T00:11:20;17.27;;;11.30;;
44276;SDS011;29973;43.742;1.236;2023-06-26T00:13:46;20.50;;;10.60;;
44276;SDS011;29973;43.742;1.236;2023-06-26T00:16:12;15.18;;;10.50;;
44276;SDS011;29973;43.742;1.236;2023-06-26T00:18:37;21.15;;;11.27;;
44276;SDS011;29973;43.742;1.236;2023-06-26T00:21:03;20.90;;;11.45;;
44276;SDS011;29973;43.742;1.236;2023-06-26T00:23:29;17.83;;;10.43;;
44276;SDS011;29973;43.742;1.236;2023-06-26T00:25:57;23.00;;;11.35;;
44276;SDS011;29973;43.742;1.236;2023-06-26T00:28:23;18.15;;;10.80;;
44276;SDS011;29973;43.742;1.236;2023-06-26T00:30:48;22.10;;;10.82;;
44276;SDS011;29973;43.742;1.236;2023-06-26T00:33:14;19.42;;;10.65;;
44276;SDS011;29973;43.742;1.236;2023-06-26T00:35:40;19.80;;;10.35;;
44276;SDS011;29973;43.742;1.236;2023-06-26T00:38:06;21.45;;;10.77;;
44276;SDS011;29973;43.742;1.236;2023-06-26T00:40:31;21.08;;;11.18;;
44276;SDS011;29973;43.742;1.236;2023-06-26T00:42:57;20.42;;;10.48;;
44276;SDS011;29973;43.742;1.236;2023-06-26T00:45:23;17.70;;;10.85;;
44276;SDS011;29973;43.742;1.236;2023-06-26T00:47:48;18.50;;;10.85;;
44276;SDS011;29973;43.742;1.236;2023-06-26T00:50:14;19.15;;;10.82;;
44276;SDS011;29973;43.742;1.236;2023-06-26T00:52:42;19.70;;;10.90;;
44276;SDS011;29973;43.742;1.236;2023-06-26T00:55:08;20.40;;;11.77;;
44276;SDS011;29973;43.742;1.236;2023-06-26T00:57:34;19.20;;;10.73;;
44276;SDS011;29973;43.742;1.236;2023-06-26T01:00:00;19.65;;;10.98;;
44276;SDS011;29973;43.742;1.236;2023-06-26T01:02:28;18.42;;;9.30;;
44276;SDS011;29973;43.742;1.236;2023-06-26T01:04:58;24.08;;;11.52;;
44276;SDS011;29973;43.742;1.236;2023-06-26T01:07:26;22.38;;;12.45;;
44276;SDS011;29973;43.742;1.236;2023-06-26T01:09:52;20.48;;;11.65;;
44276;SDS011;29973;43.742;1.236;2023-06-26T01:12:17;21.15;;;11.45;;
44276;SDS011;29973;43.742;1.236;2023-06-26T01:14:45;19.52;;;11.23;;
44276;SDS011;29973;43.742;1.236;2023-06-26T01:17:10;23.58;;;11.57;;
44276;SDS011;29973;43.742;1.236;2023-06-26T01:19:38;18.83;;;10.68;;
44276;SDS011;29973;43.742;1.236;2023-06-26T01:30:13;20.45;;;10.50;;
44276;SDS011;29973;43.742;1.236;2023-06-26T01:32:40;21.00;;;11.35;;
44276;SDS011;29973;43.742;1.236;2023-06-26T01:35:07;23.58;;;11.15;;
44276;SDS011;29973;43.742;1.236;2023-06-26T01:37:34;24.15;;;11.55;;
44276;SDS011;29973;43.742;1.236;2023-06-26T01:40:00;20.00;;;11.35;;
44276;SDS011;29973;43.742;1.236;2023-06-26T01:42:26;18.23;;;11.35;;
44276;SDS011;29973;43.742;1.236;2023-06-26T01:44:52;20.98;;;11.90;;
44276;SDS011;29973;43.742;1.236;2023-06-26T01:47:21;21.15;;;11.82;;
44276;SDS011;29973;43.742;1.236;2023-06-26T01:52:20;25.42;;;12.10;;
44276;SDS011;29973;43.742;1.236;2023-06-26T01:57:42;24.55;;;11.73;;
44276;SDS011;29973;43.742;1.236;2023-06-26T02:00:10;25.85;;;12.05;;
44276;SDS011;29973;43.742;1.236;2023-06-26T02:02:37;19.63;;;11.80;;
44276;SDS011;29973;43.742;1.236;2023-06-26T02:05:05;22.80;;;11.38;;
44276;SDS011;29973;43.742;1.236;2023-06-26T02:07:31;19.90;;;11.48;;
44276;SDS011;29973;43.742;1.236;2023-06-26T02:09:57;24.92;;;12.18;;
44276;SDS011;29973;43.742;1.236;2023-06-26T02:12:22;26.40;;;12.13;;
44276;SDS011;29973;43.742;1.236;2023-06-26T02:14:49;24.75;;;11.73;;
44276;SDS011;29973;43.742;1.236;2023-06-26T02:17:16;20.50;;;11.25;;
44276;SDS011;29973;43.742;1.236;2023-06-26T02:19:42;23.42;;;11.95;;
44276;SDS011;29973;43.742;1.236;2023-06-26T02:22:12;27.48;;;11.80;;
44276;SDS011;29973;43.742;1.236;2023-06-26T02:24:41;20.73;;;10.63;;
44276;SDS011;29973;43.742;1.236;2023-06-26T02:27:08;21.65;;;11.02;;
44276;SDS011;29973;43.742;1.236;2023-06-26T02:29:34;26.45;;;13.23;;
44276;SDS011;29973;43.742;1.236;2023-06-26T02:32:00;25.35;;;12.85;;
44276;SDS011;29973;43.742;1.236;2023-06-26T02:34:26;20.00;;;11.48;;
44276;SDS011;29973;43.742;1.236;2023-06-26T02:36:52;21.20;;;11.45;;
44276;SDS011;29973;43.742;1.236;2023-06-26T02:39:21;23.77;;;11.40;;
44276;SDS011;29973;43.742;1.236;2023-06-26T02:41:47;21.88;;;13.02;;
44276;SDS011;29973;43.742;1.236;2023-06-26T02:44:13;25.20;;;11.85;;
44276;SDS011;29973;43.742;1.236;2023-06-26T02:46:39;20.17;;;12.50;;
44276;SDS011;29973;43.742;1.236;2023-06-26T02:49:05;24.85;;;11.90;;
44276;SDS011;29973;43.742;1.236;2023-06-26T02:51:32;19.33;;;11.73;;
44276;SDS011;29973;43.742;1.236;2023-06-26T02:53:58;25.17;;;11.90;;
44276;SDS011;29973;43.742;1.236;2023-06-26T02:56:24;27.17;;;12.40;;
44276;SDS011;29973;43.742;1.236;2023-06-26T02:58:53;23.23;;;12.38;;
44276;SDS011;29973;43.742;1.236;2023-06-26T03:01:20;26.00;;;13.63;;
44276;SDS011;29973;43.742;1.236;2023-06-26T03:03:46;25.48;;;12.32;;
44276;SDS011;29973;43.742;1.236;2023-06-26T03:06:12;25.63;;;12.32;;
44276;SDS011;29973;43.742;1.236;2023-06-26T03:08:38;20.90;;;11.35;;
44276;SDS011;29973;43.742;1.236;2023-06-26T03:11:05;23.55;;;12.45;;
44276;SDS011;29973;43.742;1.236;2023-06-26T03:13:32;21.83;;;13.00;;
44276;SDS011;29973;43.742;1.236;2023-06-26T03:15:58;31.45;;;11.90;;
44276;SDS011;29973;43.742;1.236;2023-06-26T03:18:24;21.52;;;11.68;;
44276;SDS011;29973;43.742;1.236;2023-06-26T03:20:50;25.77;;;12.65;;
44276;SDS011;29973;43.742;1.236;2023-06-26T03:23:15;24.05;;;12.15;;
44276;SDS011;29973;43.742;1.236;2023-06-26T03:25:41;20.85;;;12.10;;
44276;SDS011;29973;43.742;1.236;2023-06-26T03:28:07;19.25;;;11.80;;
44276;SDS011;29973;43.742;1.236;2023-06-26T03:30:33;20.40;;;11.25;;
44276;SDS011;29973;43.742;1.236;2023-06-26T03:32:58;26.45;;;12.15;;
44276;SDS011;29973;43.742;1.236;2023-06-26T03:35:24;18.75;;;11.15;;
44276;SDS011;29973;43.742;1.236;2023-06-26T03:37:49;20.63;;;11.98;;
44276;SDS011;29973;43.742;1.236;2023-06-26T03:40:15;25.27;;;11.52;;
44276;SDS011;29973;43.742;1.236;2023-06-26T03:42:42;23.30;;;11.02;;
44276;SDS011;29973;43.742;1.236;2023-06-26T03:45:07;20.10;;;11.32;;
44276;SDS011;29973;43.742;1.236;2023-06-26T03:47:33;22.92;;;11.70;;
44276;SDS011;29973;43.742;1.236;2023-06-26T03:49:59;19.20;;;10.90;;
44276;SDS011;29973;43.742;1.236;2023-06-26T03:52:24;22.77;;;10.75;;
44276;SDS011;29973;43.742;1.236;2023-06-26T03:54:50;22.73;;;11.07;;
44276;SDS011;29973;43.742;1.236;2023-06-26T03:57:16;22.05;;;10.90;;
44276;SDS011;29973;43.742;1.236;2023-06-26T03:59:45;23.52;;;10.27;;
44276;SDS011;29973;43.742;1.236;2023-06-26T04:02:15;17.20;;;9.88;;
44276;SDS011;29973;43.742;1.236;2023-06-26T04:04:41;23.83;;;10.75;;
44276;SDS011;29973;43.742;1.236;2023-06-26T04:07:07;15.18;;;8.98;;
44276;SDS011;29973;43.742;1.236;2023-06-26T04:09:32;20.48;;;9.23;;
44276;SDS011;29973;43.742;1.236;2023-06-26T04:11:58;24.30;;;9.25;;
44276;SDS011;29973;43.742;1.236;2023-06-26T04:14:24;23.50;;;9.82;;
44276;SDS011;29973;43.742;1.236;2023-06-26T04:16:49;19.25;;;9.05;;
44276;SDS011;29973;43.742;1.236;2023-06-26T04:19:15;20.50;;;8.88;;
44276;SDS011;29973;43.742;1.236;2023-06-26T04:21:41;21.20;;;9.02;;
44276;SDS011;29973;43.742;1.236;2023-06-26T04:24:07;24.35;;;9.75;;
44276;SDS011;29973;43.742;1.236;2023-06-26T04:26:32;18.85;;;9.32;;
44276;SDS011;29973;43.742;1.236;2023-06-26T04:28:58;20.77;;;9.75;;
44276;SDS011;29973;43.742;1.236;2023-06-26T04:31:25;21.90;;;9.73;;
44276;SDS011;29973;43.742;1.236;2023-06-26T04:33:51;17.13;;;9.07;;
44276;SDS011;29973;43.742;1.236;2023-06-26T04:36:19;25.70;;;10.18;;
44276;SDS011;29973;43.742;1.236;2023-06-26T04:38:45;23.33;;;10.30;;
44276;SDS011;29973;43.742;1.236;2023-06-26T04:41:13;22.10;;;10.20;;
44276;SDS011;29973;43.742;1.236;2023-06-26T04:43:39;21.10;;;10.18;;
44276;SDS011;29973;43.742;1.236;2023-06-26T04:46:05;14.65;;;9.55;;
44276;SDS011;29973;43.742;1.236;2023-06-26T04:48:31;22.27;;;10.13;;
44276;SDS011;29973;43.742;1.236;2023-06-26T04:50:57;14.90;;;9.30;;
44276;SDS011;29973;43.742;1.236;2023-06-26T04:53:24;16.17;;;8.75;;
44276;SDS011;29973;43.742;1.236;2023-06-26T04:55:50;22.33;;;9.43;;
44276;SDS011;29973;43.742;1.236;2023-06-26T04:58:17;23.73;;;9.90;;
44276;SDS011;29973;43.742;1.236;2023-06-26T05:00:43;21.05;;;9.13;;
44276;SDS011;29973;43.742;1.236;2023-06-26T05:03:12;19.60;;;9.38;;
44276;SDS011;29973;43.742;1.236;2023-06-26T05:05:38;19.83;;;9.93;;
44276;SDS011;29973;43.742;1.236;2023-06-26T05:10:59;18.52;;;8.45;;
44276;SDS011;29973;43.742;1.236;2023-06-26T05:13:25;17.65;;;8.48;;
44276;SDS011;29973;43.742;1.236;2023-06-26T05:15:51;15.57;;;7.82;;
44276;SDS011;29973;43.742;1.236;2023-06-26T05:18:17;20.33;;;9.23;;
44276;SDS011;29973;43.742;1.236;2023-06-26T05:20:43;12.38;;;7.93;;
44276;SDS011;29973;43.742;1.236;2023-06-26T05:23:12;13.73;;;8.02;;
44276;SDS011;29973;43.742;1.236;2023-06-26T05:25:38;19.65;;;8.40;;
44276;SDS011;29973;43.742;1.236;2023-06-26T05:28:05;16.00;;;7.28;;
44276;SDS011;29973;43.742;1.236;2023-06-26T05:30:31;13.25;;;7.93;;
44276;SDS011;29973;43.742;1.236;2023-06-26T05:33:00;21.73;;;7.55;;
44276;SDS011;29973;43.742;1.236;2023-06-26T05:35:28;12.20;;;6.90;;
44276;SDS011;29973;43.742;1.236;2023-06-26T05:37:55;12.70;;;6.55;;
44276;SDS011;29973;43.742;1.236;2023-06-26T05:40:22;14.65;;;7.35;;
44276;SDS011;29973;43.742;1.236;2023-06-26T05:42:48;14.02;;;7.30;;
44276;SDS011;29973;43.742;1.236;2023-06-26T05:45:14;15.32;;;6.82;;
44276;SDS011;29973;43.742;1.236;2023-06-26T05:47:40;15.73;;;7.30;;
44276;SDS011;29973;43.742;1.236;2023-06-26T05:50:07;14.57;;;6.95;;
44276;SDS011;29973;43.742;1.236;2023-06-26T05:52:34;14.30;;;7.18;;
44276;SDS011;29973;43.742;1.236;2023-06-26T05:55:01;12.00;;;6.70;;
44276;SDS011;29973;43.742;1.236;2023-06-26T05:57:28;14.15;;;6.53;;
44276;SDS011;29973;43.742;1.236;2023-06-26T05:59:55;14.18;;;6.53;;
44276;SDS011;29973;43.742;1.236;2023-06-26T06:02:21;21.25;;;6.72;;
44276;SDS011;29973;43.742;1.236;2023-06-26T06:04:48;11.98;;;6.10;;
44276;SDS011;29973;43.742;1.236;2023-06-26T06:07:14;12.18;;;6.20;;
44276;SDS011;29973;43.742;1.236;2023-06-26T06:09:39;17.38;;;6.70;;
44276;SDS011;29973;43.742;1.236;2023-06-26T06:12:05;14.07;;;6.07;;
44276;SDS011;29973;43.742;1.236;2023-06-26T06:14:32;9.00;;;5.57;;
44276;SDS011;29973;43.742;1.236;2023-06-26T06:16:58;10.10;;;5.93;;
44276;SDS011;29973;43.742;1.236;2023-06-26T06:19:24;12.25;;;5.85;;
44276;SDS011;29973;43.742;1.236;2023-06-26T06:21:50;12.18;;;5.90;;
44276;SDS011;29973;43.742;1.236;2023-06-26T06:24:16;12.30;;;5.25;;
44276;SDS011;29973;43.742;1.236;2023-06-26T06:26:41;11.07;;;5.40;;
44276;SDS011;29973;43.742;1.236;2023-06-26T06:29:07;13.40;;;5.95;;
44276;SDS011;29973;43.742;1.236;2023-06-26T06:31:33;16.13;;;5.25;;
44276;SDS011;29973;43.742;1.236;2023-06-26T06:33:59;13.57;;;5.40;;
44276;SDS011;29973;43.742;1.236;2023-06-26T06:36:24;9.73;;;5.63;;
44276;SDS011;29973;43.742;1.236;2023-06-26T06:38:50;12.02;;;5.68;;
44276;SDS011;29973;43.742;1.236;2023-06-26T06:41:16;13.93;;;5.97;;
44276;SDS011;29973;43.742;1.236;2023-06-26T06:43:42;11.52;;;5.32;;
44276;SDS011;29973;43.742;1.236;2023-06-26T06:46:08;15.95;;;5.57;;
44276;SDS011;29973;43.742;1.236;2023-06-26T06:48:33;12.85;;;5.03;;
44276;SDS011;29973;43.742;1.236;2023-06-26T06:51:00;12.88;;;5.90;;
44276;SDS011;29973;43.742;1.236;2023-06-26T06:53:27;11.73;;;5.68;;
44276;SDS011;29973;43.742;1.236;2023-06-26T06:55:52;12.32;;;6.20;;
44276;SDS011;29973;43.742;1.236;2023-06-26T06:58:18;12.25;;;5.85;;
44276;SDS011;29973;43.742;1.236;2023-06-26T07:00:44;8.85;;;5.03;;
44276;SDS011;29973;43.742;1.236;2023-06-26T07:03:14;10.30;;;5.32;;
44276;SDS011;29973;43.742;1.236;2023-06-26T07:05:50;14.15;;;5.72;;
44276;SDS011;29973;43.742;1.236;2023-06-26T07:08:18;11.38;;;5.25;;
44276;SDS011;29973;43.742;1.236;2023-06-26T07:10:47;9.35;;;5.15;;
44276;SDS011;29973;43.742;1.236;2023-06-26T07:13:13;14.57;;;5.70;;
44276;SDS011;29973;43.742;1.236;2023-06-26T07:15:39;15.65;;;5.70;;
44276;SDS011;29973;43.742;1.236;2023-06-26T07:18:05;11.15;;;5.28;;
44276;SDS011;29973;43.742;1.236;2023-06-26T07:20:30;15.35;;;5.57;;
44276;SDS011;29973;43.742;1.236;2023-06-26T07:22:56;12.10;;;5.78;;
44276;SDS011;29973;43.742;1.236;2023-06-26T07:25:22;11.65;;;5.78;;
44276;SDS011;29973;43.742;1.236;2023-06-26T07:27:47;14.90;;;5.05;;
44276;SDS011;29973;43.742;1.236;2023-06-26T07:30:13;10.52;;;5.32;;
44276;SDS011;29973;43.742;1.236;2023-06-26T07:32:39;9.43;;;5.60;;
44276;SDS011;29973;43.742;1.236;2023-06-26T07:35:08;12.90;;;5.03;;
44276;SDS011;29973;43.742;1.236;2023-06-26T07:37:34;10.93;;;5.82;;
44276;SDS011;29973;43.742;1.236;2023-06-26T07:40:00;13.20;;;5.50;;
44276;SDS011;29973;43.742;1.236;2023-06-26T07:42:25;12.93;;;6.20;;
44276;SDS011;29973;43.742;1.236;2023-06-26T07:44:51;12.07;;;5.25;;
44276;SDS011;29973;43.742;1.236;2023-06-26T07:47:17;9.18;;;5.13;;
44276;SDS011;29973;43.742;1.236;2023-06-26T07:49:42;10.23;;;5.20;;
44276;SDS011;29973;43.742;1.236;2023-06-26T07:52:08;12.60;;;5.47;;
44276;SDS011;29973;43.742;1.236;2023-06-26T07:54:36;12.15;;;5.10;;
44276;SDS011;29973;43.742;1.236;2023-06-26T07:57:02;7.78;;;4.65;;
44276;SDS011;29973;43.742;1.236;2023-06-26T07:59:32;13.02;;;5.38;;
44276;SDS011;29973;43.742;1.236;2023-06-26T08:01:58;12.75;;;5.38;;
44276;SDS011;29973;43.742;1.236;2023-06-26T08:04:25;14.18;;;5.38;;
44276;SDS011;29973;43.742;1.236;2023-06-26T08:06:53;11.77;;;5.38;;
44276;SDS011;29973;43.742;1.236;2023-06-26T08:09:20;14.50;;;5.78;;
44276;SDS011;29973;43.742;1.236;2023-06-26T08:11:47;9.02;;;5.18;;
44276;SDS011;29973;43.742;1.236;2023-06-26T08:14:13;14.40;;;5.82;;
44276;SDS011;29973;43.742;1.236;2023-06-26T08:16:40;10.93;;;5.15;;
44276;SDS011;29973;43.742;1.236;2023-06-26T08:19:07;10.25;;;5.40;;
44276;SDS011;29973;43.742;1.236;2023-06-26T08:21:35;13.75;;;5.65;;
44276;SDS011;29973;43.742;1.236;2023-06-26T08:24:01;11.45;;;5.30;;
44276;SDS011;29973;43.742;1.236;2023-06-26T08:26:27;12.02;;;5.72;;
44276;SDS011;29973;43.742;1.236;2023-06-26T08:28:53;12.18;;;5.38;;
44276;SDS011;29973;43.742;1.236;2023-06-26T08:31:19;10.82;;;5.40;;
44276;SDS011;29973;43.742;1.236;2023-06-26T08:33:45;12.13;;;5.47;;
44276;SDS011;29973;43.742;1.236;2023-06-26T08:36:11;13.88;;;5.47;;
44276;SDS011;29973;43.742;1.236;2023-06-26T08:38:37;13.73;;;5.32;;
44276;SDS011;29973;43.742;1.236;2023-06-26T08:41:05;10.63;;;5.63;;
44276;SDS011;29973;43.742;1.236;2023-06-26T08:43:34;11.13;;;5.00;;
44276;SDS011;29973;43.742;1.236;2023-06-26T08:46:01;14.82;;;5.53;;
44276;SDS011;29973;43.742;1.236;2023-06-26T08:48:28;14.60;;;5.18;;
44276;SDS011;29973;43.742;1.236;2023-06-26T08:50:57;13.15;;;5.40;;
44276;SDS011;29973;43.742;1.236;2023-06-26T08:55:58;8.63;;;4.80;;
44276;SDS011;29973;43.742;1.236;2023-06-26T08:58:25;17.35;;;6.13;;
44276;SDS011;29973;43.742;1.236;2023-06-26T09:00:51;11.48;;;5.55;;
44276;SDS011;29973;43.742;1.236;2023-06-26T09:03:17;11.27;;;5.05;;
44276;SDS011;29973;43.742;1.236;2023-06-26T09:05:43;10.65;;;5.45;;
44276;SDS011;29973;43.742;1.236;2023-06-26T09:08:09;13.27;;;5.38;;
44276;SDS011;29973;43.742;1.236;2023-06-26T09:10:35;17.35;;;5.60;;
44276;SDS011;29973;43.742;1.236;2023-06-26T09:13:02;16.60;;;5.97;;
44276;SDS011;29973;43.742;1.236;2023-06-26T09:15:36;11.23;;;5.43;;
44276;SDS011;29973;43.742;1.236;2023-06-26T09:18:04;14.18;;;5.95;;
44276;SDS011;29973;43.742;1.236;2023-06-26T09:20:31;11.00;;;5.13;;
44276;SDS011;29973;43.742;1.236;2023-06-26T09:23:00;16.17;;;6.27;;
44276;SDS011;29973;43.742;1.236;2023-06-26T09:25:27;11.18;;;5.75;;
44276;SDS011;29973;43.742;1.236;2023-06-26T09:27:54;8.95;;;4.97;;
44276;SDS011;29973;43.742;1.236;2023-06-26T09:30:20;10.82;;;4.88;;
44276;SDS011;29973;43.742;1.236;2023-06-26T09:32:47;12.88;;;5.72;;
44276;SDS011;29973;43.742;1.236;2023-06-26T09:35:14;14.15;;;5.43;;
44276;SDS011;29973;43.742;1.236;2023-06-26T09:37:40;12.68;;;5.45;;
44276;SDS011;29973;43.742;1.236;2023-06-26T09:40:06;9.13;;;4.93;;
44276;SDS011;29973;43.742;1.236;2023-06-26T09:42:33;11.10;;;5.40;;
44276;SDS011;29973;43.742;1.236;2023-06-26T09:44:59;12.38;;;5.30;;
44276;SDS011;29973;43.742;1.236;2023-06-26T09:47:25;10.77;;;5.25;;
44276;SDS011;29973;43.742;1.236;2023-06-26T09:49:51;12.63;;;5.57;;
44276;SDS011;29973;43.742;1.236;2023-06-26T09:52:17;9.23;;;5.40;;
44276;SDS011;29973;43.742;1.236;2023-06-26T09:54:44;11.18;;;5.50;;
44276;SDS011;29973;43.742;1.236;2023-06-26T09:57:11;14.27;;;5.38;;
44276;SDS011;29973;43.742;1.236;2023-06-26T09:59:38;12.30;;;5.78;;
44276;SDS011;29973;43.742;1.236;2023-06-26T10:04:36;13.30;;;5.05;;
44276;SDS011;29973;43.742;1.236;2023-06-26T10:07:04;9.10;;;5.68;;
44276;SDS011;29973;43.742;1.236;2023-06-26T10:09:31;11.88;;;5.75;;
44276;SDS011;29973;43.742;1.236;2023-06-26T10:12:06;12.88;;;5.80;;
44276;SDS011;29973;43.742;1.236;2023-06-26T10:14:34;11.50;;;5.50;;
44276;SDS011;29973;43.742;1.236;2023-06-26T10:17:03;12.23;;;5.68;;
44276;SDS011;29973;43.742;1.236;2023-06-26T10:19:31;10.98;;;4.80;;
44276;SDS011;29973;43.742;1.236;2023-06-26T10:21:59;13.23;;;5.20;;
44276;SDS011;29973;43.742;1.236;2023-06-26T10:24:29;14.88;;;5.88;;
44276;SDS011;29973;43.742;1.236;2023-06-26T10:27:14;14.68;;;5.15;;
44276;SDS011;29973;43.742;1.236;2023-06-26T10:29:43;13.57;;;5.45;;
44276;SDS011;29973;43.742;1.236;2023-06-26T10:32:12;12.07;;;5.50;;
44276;SDS011;29973;43.742;1.236;2023-06-26T10:34:39;9.48;;;4.93;;
44276;SDS011;29973;43.742;1.236;2023-06-26T10:37:05;14.85;;;5.50;;
44276;SDS011;29973;43.742;1.236;2023-06-26T10:39:50;14.45;;;5.75;;
44276;SDS011;29973;43.742;1.236;2023-06-26T10:42:19;12.82;;;5.38;;
44276;SDS011;29973;43.742;1.236;2023-06-26T10:44:53;9.30;;;5.68;;
44276;SDS011;29973;43.742;1.236;2023-06-26T10:47:32;9.65;;;5.53;;
44276;SDS011;29973;43.742;1.236;2023-06-26T10:55:57;9.50;;;5.25;;
44276;SDS011;29973;43.742;1.236;2023-06-26T11:03:38;13.20;;;5.80;;
44276;SDS011;29973;43.742;1.236;2023-06-26T11:06:11;12.30;;;6.13;;
44276;SDS011;29973;43.742;1.236;2023-06-26T11:12:09;10.85;;;5.70;;
44276;SDS011;29973;43.742;1.236;2023-06-26T11:14:20;10.73;;;5.60;;
44276;SDS011;29973;43.742;1.236;2023-06-26T11:16:48;11.57;;;5.55;;
44276;SDS011;29973;43.742;1.236;2023-06-26T11:19:14;12.30;;;5.53;;
44276;SDS011;29973;43.742;1.236;2023-06-26T11:21:41;8.20;;;4.93;;
44276;SDS011;29973;43.742;1.236;2023-06-26T11:24:09;11.57;;;5.10;;
44276;SDS011;29973;43.742;1.236;2023-06-26T11:26:43;9.40;;;4.90;;
44276;SDS011;29973;43.742;1.236;2023-06-26T11:29:10;11.18;;;5.50;;
44276;SDS011;29973;43.742;1.236;2023-06-26T11:31:38;10.93;;;5.32;;
44276;SDS011;29973;43.742;1.236;2023-06-26T11:34:06;9.30;;;5.10;;
44276;SDS011;29973;43.742;1.236;2023-06-26T11:36:37;9.57;;;5.28;;
44276;SDS011;29973;43.742;1.236;2023-06-26T11:39:06;8.60;;;4.82;;
44276;SDS011;29973;43.742;1.236;2023-06-26T11:41:33;8.50;;;5.10;;
44276;SDS011;29973;43.742;1.236;2023-06-26T11:44:02;8.75;;;5.00;;
44276;SDS011;29973;43.742;1.236;2023-06-26T11:46:29;12.80;;;5.32;;
44276;SDS011;29973;43.742;1.236;2023-06-26T11:48:55;10.73;;;4.82;;
44276;SDS011;29973;43.742;1.236;2023-06-26T11:51:21;12.07;;;5.35;;
44276;SDS011;29973;43.742;1.236;2023-06-26T11:53:47;9.32;;;5.90;;
44276;SDS011;29973;43.742;1.236;2023-06-26T11:56:17;10.25;;;4.97;;
44276;SDS011;29973;43.742;1.236;2023-06-26T12:01:22;16.02;;;5.00;;
44276;SDS011;29973;43.742;1.236;2023-06-26T12:03:49;8.05;;;4.65;;
44276;SDS011;29973;43.742;1.236;2023-06-26T12:06:15;8.52;;;4.70;;
44276;SDS011;29973;43.742;1.236;2023-06-26T12:08:41;8.27;;;4.75;;
44276;SDS011;29973;43.742;1.236;2023-06-26T12:11:07;8.07;;;4.68;;
44276;SDS011;29973;43.742;1.236;2023-06-26T12:13:34;8.35;;;4.43;;
44276;SDS011;29973;43.742;1.236;2023-06-26T12:16:00;6.55;;;4.63;;
44276;SDS011;29973;43.742;1.236;2023-06-26T12:18:26;10.35;;;4.50;;
44276;SDS011;29973;43.742;1.236;2023-06-26T12:20:59;8.70;;;4.40;;
44276;SDS011;29973;43.742;1.236;2023-06-26T12:23:31;8.57;;;4.53;;
44276;SDS011;29973;43.742;1.236;2023-06-26T12:26:20;9.70;;;4.50;;
44276;SDS011;29973;43.742;1.236;2023-06-26T12:28:46;5.25;;;3.92;;
44276;SDS011;29973;43.742;1.236;2023-06-26T12:31:14;6.47;;;4.22;;
44276;SDS011;29973;43.742;1.236;2023-06-26T12:33:49;9.15;;;4.57;;
44276;SDS011;29973;43.742;1.236;2023-06-26T12:36:20;9.00;;;3.90;;
44276;SDS011;29973;43.742;1.236;2023-06-26T12:39:00;8.85;;;4.50;;
44276;SDS011;29973;43.742;1.236;2023-06-26T12:41:32;6.82;;;3.53;;
44276;SDS011;29973;43.742;1.236;2023-06-26T12:44:03;6.63;;;3.53;;
44276;SDS011;29973;43.742;1.236;2023-06-26T12:46:52;9.57;;;4.18;;
44276;SDS011;29973;43.742;1.236;2023-06-26T12:49:37;7.32;;;3.60;;
44276;SDS011;29973;43.742;1.236;2023-06-26T12:52:14;9.35;;;3.65;;
44276;SDS011;29973;43.742;1.236;2023-06-26T12:54:41;7.25;;;3.47;;
44276;SDS011;29973;43.742;1.236;2023-06-26T12:57:08;7.57;;;4.20;;
44276;SDS011;29973;43.742;1.236;2023-06-26T12:59:38;7.38;;;4.53;;
44276;SDS011;29973;43.742;1.236;2023-06-26T13:02:08;10.55;;;4.43;;
44276;SDS011;29973;43.742;1.236;2023-06-26T13:04:36;5.88;;;4.32;;
44276;SDS011;29973;43.742;1.236;2023-06-26T13:07:05;6.07;;;3.97;;
44276;SDS011;29973;43.742;1.236;2023-06-26T13:09:34;10.07;;;4.03;;
44276;SDS011;29973;43.742;1.236;2023-06-26T13:12:00;6.43;;;3.70;;
44276;SDS011;29973;43.742;1.236;2023-06-26T13:14:30;11.27;;;4.15;;
44276;SDS011;29973;43.742;1.236;2023-06-26T13:16:56;5.32;;;3.80;;
44276;SDS011;29973;43.742;1.236;2023-06-26T13:19:22;6.60;;;3.25;;
44276;SDS011;29973;43.742;1.236;2023-06-26T13:21:47;7.13;;;3.65;;
44276;SDS011;29973;43.742;1.236;2023-06-26T13:24:13;7.55;;;4.03;;
44276;SDS011;29973;43.742;1.236;2023-06-26T13:26:39;7.90;;;4.15;;
44276;SDS011;29973;43.742;1.236;2023-06-26T13:29:05;6.60;;;3.33;;
44276;SDS011;29973;43.742;1.236;2023-06-26T13:31:31;8.80;;;3.15;;
44276;SDS011;29973;43.742;1.236;2023-06-26T13:33:57;5.50;;;3.40;;
44276;SDS011;29973;43.742;1.236;2023-06-26T13:36:23;7.00;;;3.38;;
44276;SDS011;29973;43.742;1.236;2023-06-26T13:38:50;8.20;;;4.03;;
44276;SDS011;29973;43.742;1.236;2023-06-26T13:43:50;6.93;;;4.13;;
44276;SDS011;29973;43.742;1.236;2023-06-26T13:46:16;5.85;;;4.38;;
44276;SDS011;29973;43.742;1.236;2023-06-26T13:48:43;8.00;;;4.32;;
44276;SDS011;29973;43.742;1.236;2023-06-26T13:51:09;7.30;;;4.57;;
44276;SDS011;29973;43.742;1.236;2023-06-26T13:53:34;6.45;;;4.30;;
44276;SDS011;29973;43.742;1.236;2023-06-26T13:56:00;7.88;;;4.15;;
44276;SDS011;29973;43.742;1.236;2023-06-26T13:58:26;6.82;;;4.68;;
44276;SDS011;29973;43.742;1.236;2023-06-26T14:00:53;8.35;;;4.40;;
44276;SDS011;29973;43.742;1.236;2023-06-26T14:03:19;8.90;;;4.10;;
44276;SDS011;29973;43.742;1.236;2023-06-26T14:05:44;10.43;;;4.15;;
44276;SDS011;29973;43.742;1.236;2023-06-26T14:08:10;9.13;;;4.95;;
44276;SDS011;29973;43.742;1.236;2023-06-26T14:10:36;7.13;;;4.28;;
44276;SDS011;29973;43.742;1.236;2023-06-26T14:13:03;9.50;;;5.25;;
44276;SDS011;29973;43.742;1.236;2023-06-26T14:15:29;8.43;;;4.78;;
44276;SDS011;29973;43.742;1.236;2023-06-26T14:17:55;8.32;;;4.60;;
44276;SDS011;29973;43.742;1.236;2023-06-26T14:20:21;6.78;;;4.10;;
44276;SDS011;29973;43.742;1.236;2023-06-26T14:22:47;8.90;;;4.47;;
44276;SDS011;29973;43.742;1.236;2023-06-26T14:25:14;9.82;;;5.22;;
44276;SDS011;29973;43.742;1.236;2023-06-26T14:27:40;7.38;;;4.65;;
44276;SDS011;29973;43.742;1.236;2023-06-26T14:30:06;8.32;;;4.72;;
44276;SDS011;29973;43.742;1.236;2023-06-26T14:32:32;7.55;;;4.28;;
44276;SDS011;29973;43.742;1.236;2023-06-26T14:34:59;7.47;;;4.30;;
44276;SDS011;29973;43.742;1.236;2023-06-26T14:37:25;9.65;;;4.95;;
44276;SDS011;29973;43.742;1.236;2023-06-26T14:39:51;6.95;;;4.63;;
44276;SDS011;29973;43.742;1.236;2023-06-26T14:42:16;7.40;;;4.68;;
44276;SDS011;29973;43.742;1.236;2023-06-26T14:44:42;9.52;;;5.10;;
44276;SDS011;29973;43.742;1.236;2023-06-26T14:47:08;5.45;;;4.35;;
44276;SDS011;29973;43.742;1.236;2023-06-26T14:49:34;8.15;;;5.05;;
44276;SDS011;29973;43.742;1.236;2023-06-26T14:51:59;10.15;;;5.43;;
44276;SDS011;29973;43.742;1.236;2023-06-26T14:54:25;8.68;;;5.25;;
44276;SDS011;29973;43.742;1.236;2023-06-26T14:56:51;8.63;;;5.03;;
44276;SDS011;29973;43.742;1.236;2023-06-26T14:59:16;10.10;;;5.40;;
44276;SDS011;29973;43.742;1.236;2023-06-26T15:01:42;7.70;;;5.13;;
44276;SDS011;29973;43.742;1.236;2023-06-26T15:04:08;8.23;;;5.45;;
44276;SDS011;29973;43.742;1.236;2023-06-26T15:06:35;9.68;;;5.07;;
44276;SDS011;29973;43.742;1.236;2023-06-26T15:09:00;9.10;;;5.38;;
44276;SDS011;29973;43.742;1.236;2023-06-26T15:11:28;10.02;;;5.28;;
44276;SDS011;29973;43.742;1.236;2023-06-26T15:13:54;10.85;;;5.20;;